createdAt,value
2023-05-09T00:02:24.778Z,85.98
2023-05-09T00:04:51.266Z,86.43
2023-05-09T00:07:17.651Z,86.56
2023-05-09T00:09:44.009Z,86.59
2023-05-09T00:12:11.634Z,86.65
2023-05-09T00:14:39.906Z,86.78
2023-05-09T00:17:07.181Z,86.65
2023-05-09T00:19:33.465Z,86.67
2023-05-09T00:21:59.785Z,86.77
2023-05-09T00:24:26.215Z,86.83
2023-05-09T00:26:52.569Z,86.99
2023-05-09T00:29:19.103Z,86.70
2023-05-09T00:31:45.422Z,87.31
2023-05-09T00:34:11.720Z,87.56
2023-05-09T00:36:38.018Z,87.28
2023-05-09T00:39:04.839Z,87.87
2023-05-09T00:41:31.169Z,87.81
2023-05-09T00:43:57.436Z,87.97
2023-05-09T00:46:23.877Z,88.36
2023-05-09T00:48:51.673Z,88.60
2023-05-09T00:51:22.500Z,88.77
2023-05-09T00:53:49.895Z,88.84
2023-05-09T00:56:16.426Z,89.13
2023-05-09T00:58:43.296Z,89.02
2023-05-09T01:01:09.868Z,89.34
2023-05-09T01:03:41.689Z,89.63
2023-05-09T01:06:20.442Z,89.68
2023-05-09T01:08:58.943Z,89.48
2023-05-09T01:11:41.091Z,89.64
2023-05-09T01:14:26.042Z,89.98
2023-05-09T01:17:13.984Z,90.41
2023-05-09T01:19:58.113Z,90.81
2023-05-09T01:22:31.289Z,90.40
2023-05-09T01:25:10.056Z,90.91
2023-05-09T01:27:56.897Z,91.35
2023-05-09T01:30:25.286Z,91.18
2023-05-09T01:32:55.770Z,90.89
2023-05-09T01:35:25.717Z,91.02
2023-05-09T01:37:54.147Z,91.10
2023-05-09T01:40:22.548Z,91.10
2023-05-09T01:42:57.678Z,91.19
2023-05-09T01:45:26.305Z,91.29
2023-05-09T01:47:53.376Z,91.47
2023-05-09T01:50:21.859Z,91.44
2023-05-09T01:52:51.485Z,91.12
2023-05-09T01:55:19.330Z,91.46
2023-05-09T01:57:49.604Z,91.53
2023-05-09T02:00:19.352Z,91.51
2023-05-09T02:02:46.052Z,91.84
2023-05-09T02:05:14.992Z,91.81
2023-05-09T02:07:42.281Z,91.71
2023-05-09T02:10:09.605Z,91.70
2023-05-09T02:12:37.710Z,91.53
2023-05-09T02:15:05.349Z,91.70
2023-05-09T02:17:32.163Z,91.63
2023-05-09T02:20:04.509Z,91.85
2023-05-09T02:22:30.829Z,91.64
2023-05-09T02:25:00.085Z,91.61
2023-05-09T02:27:27.153Z,91.53
2023-05-09T02:29:57.670Z,91.57
2023-05-09T02:32:27.991Z,91.66
2023-05-09T02:34:55.493Z,92.02
2023-05-09T02:37:22.870Z,92.46
2023-05-09T02:39:49.264Z,92.28
2023-05-09T02:42:24.487Z,92.47
2023-05-09T02:44:51.657Z,92.94
2023-05-09T02:47:17.960Z,92.86
2023-05-09T02:49:44.303Z,92.85
2023-05-09T02:52:11.218Z,93.03
2023-05-09T02:54:37.940Z,93.05
2023-05-09T02:57:04.713Z,93.08
2023-05-09T02:59:31.403Z,92.92
2023-05-09T03:02:00.393Z,93.17
2023-05-09T03:04:26.874Z,93.05
2023-05-09T03:06:53.148Z,93.28
2023-05-09T03:09:19.705Z,93.74
2023-05-09T03:11:46.014Z,93.99
2023-05-09T03:14:14.145Z,94.08
2023-05-09T03:16:40.622Z,94.84
2023-05-09T03:19:11.628Z,94.92
2023-05-09T03:21:38.769Z,94.68
2023-05-09T03:24:06.913Z,94.72
2023-05-09T03:26:35.029Z,95.06
2023-05-09T03:29:02.181Z,95.44
2023-05-09T03:31:28.514Z,95.69
2023-05-09T03:33:54.867Z,95.78
2023-05-09T03:36:22.480Z,95.82
2023-05-09T03:38:49.021Z,96.14
2023-05-09T03:41:16.565Z,96.23
2023-05-09T03:43:43.537Z,96.21
2023-05-09T03:46:09.862Z,96.85
2023-05-09T03:48:36.400Z,97.04
2023-05-09T03:51:02.885Z,96.98
2023-05-09T03:53:29.575Z,97.01
2023-05-09T03:55:56.008Z,97.89
2023-05-09T03:58:22.431Z,97.84
2023-05-09T04:00:48.932Z,97.99
2023-05-09T04:03:31.352Z,98.40
2023-05-09T04:05:57.960Z,99.42
2023-05-09T04:08:29.120Z,99.91
2023-05-09T04:10:55.490Z,100.00
2023-05-09T04:13:22.218Z,100.00
2023-05-09T04:15:48.941Z,100.00
2023-05-09T04:18:15.358Z,100.00
2023-05-09T04:20:41.658Z,100.00
2023-05-09T04:23:08.308Z,100.00
2023-05-09T04:25:34.836Z,100.00
2023-05-09T04:28:01.642Z,100.00
2023-05-09T04:30:28.434Z,100.00
2023-05-09T04:32:55.421Z,100.00
2023-05-09T04:35:22.578Z,100.00
2023-05-09T04:37:50.720Z,100.00
2023-05-09T04:40:17.242Z,100.00
2023-05-09T04:42:49.144Z,100.00
2023-05-09T04:45:16.660Z,100.00
2023-05-09T04:47:43.524Z,100.00
2023-05-09T04:50:10.413Z,100.00
2023-05-09T04:52:36.717Z,100.00
2023-05-09T04:55:03.177Z,100.00
2023-05-09T04:57:32.769Z,100.00
2023-05-09T04:59:59.030Z,100.00
2023-05-09T05:02:25.592Z,100.00
2023-05-09T05:04:56.110Z,100.00
2023-05-09T05:07:26.778Z,100.00
2023-05-09T05:09:53.606Z,100.00
2023-05-09T05:12:20.133Z,99.87
2023-05-09T05:14:46.765Z,99.92
2023-05-09T05:17:17.507Z,99.45
2023-05-09T05:19:44.314Z,99.38
2023-05-09T05:22:11.143Z,99.71
2023-05-09T05:24:38.860Z,99.51
2023-05-09T05:27:05.242Z,99.00
2023-05-09T05:29:31.902Z,97.32
2023-05-09T05:32:00.844Z,95.92
2023-05-09T05:34:27.411Z,95.81
2023-05-09T05:36:53.906Z,95.96
2023-05-09T05:39:20.607Z,94.38
2023-05-09T05:41:47.804Z,91.95
2023-05-09T05:44:14.783Z,91.17
2023-05-09T05:46:41.491Z,89.97
2023-05-09T05:49:08.006Z,89.25
2023-05-09T05:51:37.764Z,88.31
2023-05-09T05:54:04.953Z,85.96
2023-05-09T05:56:31.696Z,84.36
2023-05-09T05:58:58.196Z,82.67
2023-05-09T06:01:24.608Z,81.15
2023-05-09T06:03:54.112Z,80.11
2023-05-09T06:06:21.583Z,79.21
2023-05-09T06:08:49.340Z,75.35
2023-05-09T06:11:16.266Z,73.09
2023-05-09T06:13:42.990Z,71.33
2023-05-09T06:16:19.556Z,70.47
2023-05-09T06:18:48.884Z,66.97
2023-05-09T06:21:15.409Z,64.91
2023-05-09T06:23:57.143Z,63.70
2023-05-09T06:26:28.905Z,62.48
2023-05-09T06:28:55.701Z,62.39
2023-05-09T06:31:23.536Z,61.76
2023-05-09T06:33:52.586Z,61.32
2023-05-09T06:36:22.370Z,61.61
2023-05-09T06:38:51.459Z,60.58
2023-05-09T06:41:17.975Z,59.66
2023-05-09T06:43:44.959Z,58.67
2023-05-09T06:46:11.513Z,57.71
2023-05-09T06:48:38.095Z,56.06
2023-05-09T06:51:04.998Z,54.70
2023-05-09T06:53:31.792Z,54.49
2023-05-09T06:56:00.495Z,54.02
2023-05-09T06:58:27.848Z,53.20
2023-05-09T07:00:55.476Z,52.59
2023-05-09T07:03:22.667Z,52.12
2023-05-09T07:05:51.814Z,50.78
2023-05-09T07:08:18.464Z,50.28
2023-05-09T07:10:45.147Z,50.47
2023-05-09T07:13:11.784Z,49.33
2023-05-09T07:15:41.854Z,48.60
2023-05-09T07:18:09.429Z,47.67
2023-05-09T07:20:36.448Z,46.93
2023-05-09T07:23:03.721Z,46.09
2023-05-09T07:25:30.205Z,45.90
2023-05-09T07:27:56.875Z,45.21
2023-05-09T07:30:23.518Z,44.91
2023-05-09T07:32:51.123Z,45.22
2023-05-09T07:35:19.160Z,44.85
2023-05-09T07:37:45.724Z,44.56
2023-05-09T07:40:12.784Z,43.80
2023-05-09T07:42:39.483Z,43.25
2023-05-09T07:45:06.738Z,42.99
2023-05-09T07:47:33.215Z,41.53
2023-05-09T07:49:59.755Z,39.89
2023-05-09T07:52:26.212Z,39.51
2023-05-09T07:54:53.836Z,38.98
2023-05-09T07:57:20.167Z,38.60
2023-05-09T07:59:48.850Z,38.83
2023-05-09T08:02:15.433Z,38.50
2023-05-09T08:04:47.973Z,37.40
2023-05-09T08:07:14.504Z,36.64
2023-05-09T08:09:41.209Z,36.70
2023-05-09T08:12:07.740Z,36.94
2023-05-09T08:14:34.263Z,37.07
2023-05-09T08:17:00.815Z,35.83
2023-05-09T08:19:27.248Z,35.34
2023-05-09T08:21:53.736Z,35.93
2023-05-09T08:24:20.503Z,35.16
2023-05-09T08:26:49.825Z,35.51
2023-05-09T08:29:18.999Z,35.17
2023-05-09T08:31:53.320Z,34.82
2023-05-09T08:34:20.607Z,34.22
2023-05-09T08:36:49.494Z,34.27
2023-05-09T08:39:16.067Z,33.59
2023-05-09T08:42:08.293Z,34.17
2023-05-09T08:44:40.015Z,33.33
2023-05-09T08:47:07.295Z,32.57
2023-05-09T08:49:35.047Z,32.80
2023-05-09T08:52:02.071Z,33.02
2023-05-09T08:54:32.050Z,32.66
2023-05-09T08:57:00.461Z,33.26
2023-05-09T08:59:28.150Z,32.81
2023-05-09T09:01:55.107Z,33.15
2023-05-09T09:04:21.679Z,32.63
2023-05-09T09:06:48.264Z,32.17
2023-05-09T09:09:16.521Z,31.86
2023-05-09T09:11:43.873Z,31.63
2023-05-09T09:14:22.951Z,31.73
2023-05-09T09:16:51.118Z,31.42
2023-05-09T09:19:19.618Z,30.90
2023-05-09T09:21:46.909Z,31.46
2023-05-09T09:24:14.190Z,31.18
2023-05-09T09:26:47.278Z,30.98
2023-05-09T09:29:14.548Z,30.85
2023-05-09T09:31:44.600Z,31.03
2023-05-09T09:34:13.577Z,30.39
2023-05-09T09:36:40.515Z,29.91
2023-05-09T09:39:08.508Z,29.90
2023-05-09T09:41:39.120Z,30.12
2023-05-09T09:44:10.164Z,30.03
2023-05-09T09:46:45.950Z,29.84
2023-05-09T09:49:14.095Z,29.92
2023-05-09T09:51:41.091Z,29.58
2023-05-09T09:54:09.518Z,29.89
2023-05-09T09:56:44.327Z,29.52
2023-05-09T09:59:15.938Z,29.38
2023-05-09T10:02:06.683Z,29.86
2023-05-09T10:04:36.404Z,29.60
2023-05-09T10:07:05.515Z,29.33
2023-05-09T10:09:33.785Z,29.46
2023-05-09T10:12:06.106Z,29.66
2023-05-09T10:14:35.574Z,29.53
2023-05-09T10:17:04.419Z,29.80
2023-05-09T10:19:34.032Z,29.86
2023-05-09T10:22:07.484Z,29.26
2023-05-09T10:24:39.759Z,29.56
2023-05-09T10:27:11.068Z,30.10
2023-05-09T10:29:44.895Z,30.22
2023-05-09T10:32:18.672Z,29.83
2023-05-09T10:34:48.688Z,30.12
2023-05-09T10:37:15.449Z,29.88
2023-05-09T10:39:43.299Z,29.55
2023-05-09T10:42:10.394Z,29.14
2023-05-09T10:44:36.957Z,29.45
2023-05-09T10:47:03.836Z,29.55
2023-05-09T10:49:31.344Z,29.38
2023-05-09T10:51:57.773Z,29.70
2023-05-09T10:54:30.859Z,29.44
2023-05-09T10:56:57.641Z,29.84
2023-05-09T10:59:37.692Z,29.80
2023-05-09T11:02:04.963Z,29.84
2023-05-09T11:04:31.958Z,30.64
2023-05-09T11:06:59.745Z,31.03
2023-05-09T11:09:38.371Z,30.68
2023-05-09T11:12:04.845Z,30.26
2023-05-09T11:14:38.885Z,30.24
2023-05-09T11:17:07.753Z,30.49
2023-05-09T11:19:46.538Z,30.32
2023-05-09T11:22:15.288Z,30.92
2023-05-09T11:24:46.727Z,30.11
2023-05-09T11:27:19.633Z,30.60
2023-05-09T11:29:51.467Z,30.40
2023-05-09T11:32:19.222Z,30.68
2023-05-09T11:34:46.602Z,30.83
2023-05-09T11:37:16.081Z,31.16
2023-05-09T11:40:00.189Z,30.84
2023-05-09T11:42:31.167Z,31.30
2023-05-09T11:44:58.446Z,30.24
2023-05-09T11:47:25.866Z,30.27
2023-05-09T11:49:52.357Z,30.69
2023-05-09T11:52:20.162Z,30.20
2023-05-09T11:54:46.939Z,30.16
2023-05-09T11:57:16.742Z,29.63
2023-05-09T11:59:44.816Z,29.73
2023-05-09T12:02:12.522Z,29.76
2023-05-09T12:04:45.794Z,29.83
2023-05-09T12:12:56.327Z,29.71
2023-05-09T12:15:23.202Z,29.15
2023-05-09T12:18:04.394Z,29.20
2023-05-09T12:20:46.865Z,29.14
2023-05-09T12:23:14.790Z,28.69
2023-05-09T12:25:52.059Z,29.24
2023-05-09T12:28:21.849Z,28.62
2023-05-09T12:30:49.228Z,28.55
2023-05-09T12:33:16.094Z,28.44
2023-05-09T12:35:47.190Z,28.56
2023-05-09T12:38:20.015Z,28.41
2023-05-09T12:41:02.170Z,28.19
2023-05-09T12:43:34.609Z,27.72
2023-05-09T12:46:02.222Z,28.08
2023-05-09T12:48:33.848Z,27.75
2023-05-09T12:51:07.420Z,27.94
2023-05-09T12:53:38.782Z,27.90
2023-05-09T12:56:13.070Z,27.75
2023-05-09T12:58:39.471Z,27.64
2023-05-09T13:01:06.066Z,27.37
2023-05-09T13:03:37.248Z,27.20
2023-05-09T13:06:05.877Z,27.11
2023-05-09T13:08:35.228Z,27.15
2023-05-09T13:11:15.028Z,26.91
2023-05-09T13:13:42.832Z,26.94
2023-05-09T13:16:10.994Z,27.43
2023-05-09T13:18:38.595Z,26.99
2023-05-09T13:21:04.999Z,27.19
2023-05-09T13:23:31.399Z,27.52
2023-05-09T13:25:57.708Z,27.88
2023-05-09T13:28:24.132Z,28.42
2023-05-09T13:30:50.575Z,27.77
2023-05-09T13:33:25.768Z,27.43
2023-05-09T13:35:53.223Z,27.37
2023-05-09T13:38:19.674Z,27.48
2023-05-09T13:40:45.970Z,27.29
2023-05-09T13:43:12.346Z,27.24
2023-05-09T13:45:38.858Z,27.43
2023-05-09T13:48:05.763Z,27.35
2023-05-09T13:50:33.494Z,27.07
2023-05-09T13:52:59.787Z,26.75
2023-05-09T13:55:26.864Z,26.85
2023-05-09T13:57:53.264Z,27.04
2023-05-09T14:00:20.692Z,27.03
2023-05-09T14:02:47.523Z,27.33
2023-05-09T14:05:13.862Z,27.54
2023-05-09T14:07:41.833Z,27.30
2023-05-09T14:10:11.897Z,27.72
2023-05-09T14:12:39.855Z,28.01
2023-05-09T14:15:07.596Z,27.89
2023-05-09T14:17:34.003Z,27.79
2023-05-09T14:20:03.466Z,27.94
2023-05-09T14:22:31.806Z,27.97
2023-05-09T14:24:58.048Z,27.97
2023-05-09T14:27:24.409Z,28.28
2023-05-09T14:29:51.110Z,28.52
2023-05-09T14:32:17.548Z,28.82
2023-05-09T14:34:44.897Z,28.81
2023-05-09T14:37:13.953Z,28.85
2023-05-09T14:39:48.722Z,28.79
2023-05-09T14:42:15.942Z,29.03
2023-05-09T14:44:42.442Z,28.89
2023-05-09T14:47:09.188Z,29.05
2023-05-09T14:49:36.705Z,29.16
2023-05-09T14:52:03.070Z,29.33
2023-05-09T14:54:29.511Z,29.55
2023-05-09T14:56:56.577Z,29.42
2023-05-09T14:59:22.892Z,29.44
2023-05-09T15:01:51.053Z,29.63
2023-05-09T15:04:17.434Z,29.63
2023-05-09T15:06:44.730Z,29.68
2023-05-09T15:09:12.091Z,29.62
2023-05-09T15:11:47.769Z,29.85
2023-05-09T15:14:15.736Z,29.78
2023-05-09T15:16:42.280Z,30.35
2023-05-09T15:19:08.732Z,30.70
2023-05-09T15:21:35.258Z,30.27
2023-05-09T15:24:01.707Z,30.65
2023-05-09T15:26:28.155Z,30.73
2023-05-09T15:28:54.428Z,30.94
2023-05-09T15:31:22.503Z,30.90
2023-05-09T15:33:49.290Z,30.98
2023-05-09T15:36:15.739Z,30.71
2023-05-09T15:38:48.439Z,30.79
2023-05-09T15:41:15.302Z,30.92
2023-05-09T15:43:41.643Z,31.04
2023-05-09T15:46:08.134Z,31.14
2023-05-09T15:48:34.531Z,31.13
2023-05-09T15:51:01.995Z,31.24
2023-05-09T15:53:28.686Z,31.12
2023-05-09T15:55:56.104Z,31.27
2023-05-09T15:58:22.817Z,31.50
2023-05-09T16:00:49.397Z,31.22
2023-05-09T16:03:16.050Z,31.58
2023-05-09T16:05:43.051Z,31.87
2023-05-09T16:08:09.353Z,31.71
2023-05-09T16:10:35.894Z,31.85
2023-05-09T16:13:04.342Z,32.05
2023-05-09T16:15:30.716Z,32.18
2023-05-09T16:17:57.179Z,31.95
2023-05-09T16:20:23.492Z,32.09
2023-05-09T16:22:49.925Z,32.04
2023-05-09T16:25:16.476Z,32.15
2023-05-09T16:27:43.245Z,32.11
2023-05-09T16:30:10.273Z,32.36
2023-05-09T16:32:36.787Z,32.53
2023-05-09T16:35:03.456Z,32.48
2023-05-09T16:37:29.767Z,32.74
2023-05-09T16:39:57.164Z,32.98
2023-05-09T16:42:23.537Z,33.11
2023-05-09T16:44:49.968Z,33.40
2023-05-09T16:47:16.226Z,33.48
2023-05-09T16:49:42.535Z,33.50
2023-05-09T16:52:08.853Z,33.20
2023-05-09T16:54:35.164Z,33.45
2023-05-09T16:57:02.482Z,33.19
2023-05-09T16:59:28.772Z,33.26
2023-05-09T17:01:56.904Z,33.52
2023-05-09T17:04:24.515Z,33.61
2023-05-09T17:06:51.155Z,33.42
2023-05-09T17:09:17.993Z,33.74
2023-05-09T17:11:44.264Z,34.03
2023-05-09T17:14:10.552Z,34.23
2023-05-09T17:16:38.117Z,34.20
2023-05-09T17:19:04.725Z,34.30
2023-05-09T17:21:31.604Z,34.04
2023-05-09T17:23:57.880Z,34.26
2023-05-09T17:26:25.067Z,34.38
2023-05-09T17:28:51.306Z,34.71
2023-05-09T17:31:17.638Z,34.90
2023-05-09T17:33:44.165Z,34.89
2023-05-09T17:36:10.474Z,34.95
2023-05-09T17:38:36.752Z,34.89
2023-05-09T17:41:03.641Z,34.90
2023-05-09T17:43:31.173Z,34.95
2023-05-09T17:45:58.193Z,35.19
2023-05-09T17:48:24.543Z,35.25
2023-05-09T17:50:50.800Z,35.51
2023-05-09T17:53:17.631Z,35.41
2023-05-09T17:55:43.946Z,35.54
2023-05-09T17:58:10.324Z,35.90
2023-05-09T18:00:36.885Z,35.82
2023-05-09T18:03:03.333Z,35.69
2023-05-09T18:05:29.858Z,35.66
2023-05-09T18:07:56.804Z,35.82
2023-05-09T18:10:23.028Z,35.86
2023-05-09T18:12:49.291Z,36.00
2023-05-09T18:15:15.664Z,36.17
2023-05-09T18:17:45.390Z,36.28
2023-05-09T18:20:11.841Z,36.47
2023-05-09T18:22:38.137Z,36.53
2023-05-09T18:25:04.868Z,36.63
2023-05-09T18:27:31.159Z,36.67
2023-05-09T18:29:57.498Z,36.53
2023-05-09T18:32:23.839Z,36.88
2023-05-09T18:34:50.248Z,36.91
2023-05-09T18:37:16.930Z,37.01
2023-05-09T18:39:43.258Z,37.00
2023-05-09T18:42:09.640Z,37.20
2023-05-09T18:44:36.688Z,37.59
2023-05-09T18:47:02.996Z,37.95
2023-05-09T18:49:29.325Z,37.96
2023-05-09T18:51:55.791Z,38.24
2023-05-09T18:54:22.157Z,38.46
2023-05-09T18:56:48.877Z,38.38
2023-05-09T18:59:16.431Z,38.62
2023-05-09T19:01:43.365Z,38.96
2023-05-09T19:04:12.304Z,38.99
2023-05-09T19:06:38.907Z,39.02
2023-05-09T19:09:05.366Z,39.66
2023-05-09T19:11:31.752Z,39.84
2023-05-09T19:13:58.194Z,39.91
2023-05-09T19:16:25.837Z,39.99
2023-05-09T19:18:59.075Z,40.63
2023-05-09T19:21:25.280Z,40.46
2023-05-09T19:23:51.705Z,41.11
2023-05-09T19:26:21.003Z,41.85
2023-05-09T19:28:47.446Z,41.94
2023-05-09T19:31:18.021Z,42.43
2023-05-09T19:33:46.763Z,42.51
2023-05-09T19:36:17.143Z,42.32
2023-05-09T19:38:43.517Z,42.71
2023-05-09T19:41:10.348Z,43.85
2023-05-09T19:43:37.212Z,43.81
2023-05-09T19:46:03.652Z,44.45
2023-05-09T19:48:30.116Z,44.94
2023-05-09T19:50:59.887Z,45.25
2023-05-09T19:53:26.292Z,45.46
2023-05-09T19:55:52.720Z,45.48
2023-05-09T19:58:19.273Z,46.06
2023-05-09T20:00:47.392Z,46.08
2023-05-09T20:03:13.983Z,45.99
2023-05-09T20:05:44.518Z,45.76
2023-05-09T20:08:10.722Z,45.74
2023-05-09T20:10:39.574Z,46.01
2023-05-09T20:13:06.068Z,46.14
2023-05-09T20:15:32.643Z,46.21
2023-05-09T20:18:02.850Z,46.36
2023-05-09T20:20:33.142Z,46.34
2023-05-09T20:22:59.468Z,46.37
2023-05-09T20:25:28.991Z,46.65
2023-05-09T20:27:55.425Z,46.98
2023-05-09T20:30:21.732Z,47.26
2023-05-09T20:32:48.044Z,47.50
2023-05-09T20:35:14.500Z,47.58
2023-05-09T20:37:41.326Z,47.37
2023-05-09T20:40:08.507Z,47.43
2023-05-09T20:42:35.031Z,47.62
2023-05-09T20:45:01.532Z,47.48
2023-05-09T20:47:27.869Z,47.71
2023-05-09T20:49:55.801Z,47.73
2023-05-09T20:52:23.026Z,47.37
2023-05-09T20:54:49.237Z,47.37
2023-05-09T20:57:15.559Z,47.25
2023-05-09T20:59:41.872Z,47.11
2023-05-09T21:02:08.166Z,47.39
2023-05-09T21:04:34.500Z,47.36
2023-05-09T21:07:00.976Z,47.32
2023-05-09T21:09:27.283Z,47.34
2023-05-09T21:11:56.435Z,47.42
2023-05-09T21:14:22.666Z,47.33
2023-05-09T21:16:54.154Z,47.51
2023-05-09T21:19:22.059Z,47.52
2023-05-09T21:21:48.277Z,47.77
2023-05-09T21:24:14.745Z,47.80
2023-05-09T21:26:44.198Z,47.91
2023-05-09T21:29:13.584Z,47.84
2023-05-09T21:31:40.061Z,47.78
2023-05-09T21:34:09.212Z,47.94
2023-05-09T21:36:42.399Z,48.03
2023-05-09T21:39:09.674Z,47.86
2023-05-09T21:41:37.823Z,47.67
2023-05-09T21:44:04.758Z,48.08
2023-05-09T21:46:34.207Z,48.14
2023-05-09T21:49:00.689Z,48.28
2023-05-09T21:51:27.721Z,48.27
2023-05-09T21:53:54.202Z,48.22
2023-05-09T21:56:22.167Z,48.55
2023-05-09T21:58:48.406Z,48.69
2023-05-09T22:01:15.931Z,48.72
2023-05-09T22:03:42.322Z,48.94
2023-05-09T22:06:08.627Z,48.94
2023-05-09T22:08:34.863Z,48.58
2023-05-09T22:11:01.078Z,48.72
2023-05-09T22:13:28.029Z,48.88
2023-05-09T22:15:54.815Z,48.88
2023-05-09T22:18:21.230Z,49.12
2023-05-09T22:20:47.544Z,48.98
2023-05-09T22:23:13.891Z,48.76
2023-05-09T22:25:40.289Z,49.12
2023-05-09T22:28:06.573Z,49.00
2023-05-09T22:30:32.800Z,49.10
2023-05-09T22:32:59.377Z,49.18
2023-05-09T22:35:25.815Z,49.17
2023-05-09T22:37:52.058Z,49.15
2023-05-09T22:40:18.353Z,49.45
2023-05-09T22:42:44.593Z,49.86
2023-05-09T22:45:10.878Z,49.66
2023-05-09T22:47:37.506Z,49.61
2023-05-09T22:50:04.126Z,50.07
2023-05-09T22:52:30.923Z,50.01
2023-05-09T22:54:57.262Z,49.76
2023-05-09T22:57:23.566Z,50.21
2023-05-09T22:59:50.412Z,50.22
2023-05-09T23:02:16.750Z,50.18
2023-05-09T23:04:43.116Z,50.26
2023-05-09T23:07:09.443Z,50.25
2023-05-09T23:09:35.767Z,50.11
2023-05-09T23:12:02.795Z,50.29
2023-05-09T23:14:29.079Z,50.49
2023-05-09T23:16:55.953Z,50.62
2023-05-09T23:19:22.401Z,50.26
2023-05-09T23:21:48.715Z,50.41
2023-05-09T23:24:15.041Z,50.64
2023-05-09T23:26:41.361Z,51.09
2023-05-09T23:29:07.628Z,50.97
2023-05-09T23:31:34.036Z,50.86
2023-05-09T23:34:00.361Z,51.22
2023-05-09T23:36:27.453Z,51.22
2023-05-09T23:38:53.721Z,51.46
2023-05-09T23:41:21.222Z,51.39
2023-05-09T23:43:47.651Z,51.51
2023-05-09T23:46:13.917Z,51.17
2023-05-09T23:48:40.831Z,51.49
2023-05-09T23:51:07.121Z,51.40
2023-05-09T23:53:34.357Z,51.58
2023-05-09T23:56:01.611Z,51.60
2023-05-09T23:58:27.895Z,51.44
